Time;durP1;ratioP1;P1;durP2;ratioP2;P2;SDS_P1;SDS_P2;PMS_P1;PMS_P2;Temp;Humidity;BMP_temperature;BMP_pressure;BME280_temperature;BME280_humidity;BME280_pressure;Samples;Min_cycle;Max_cycle;Signal;HPM_P1;HPM_P2
2024/03/13 00:00:44;;;;;;;2.47;2.27;;;;;;;7.83;87.91;95813.88;5131287;28;20239;-84
2024/03/13 00:03:13;;;;;;;2.33;2.13;;;;;;;7.85;87.44;95809.03;5132941;27;20198;-84
2024/03/13 00:05:40;;;;;;;3.67;2.43;;;;;;;7.97;87.07;95795.34;5132746;27;20195;-84
2024/03/13 00:08:08;;;;;;;4.13;3.27;;;;;;;7.73;86.83;95784.06;5131415;28;20190;-83
2024/03/13 00:10:36;;;;;;;3.73;2.77;;;;;;;7.98;86.95;95798.81;5133255;27;20202;-84
2024/03/13 00:13:04;;;;;;;4.20;3.37;;;;;;;8.01;86.45;95799.00;5136911;27;20199;-84
2024/03/13 00:15:33;;;;;;;3.47;2.57;;;;;;;7.89;86.70;95784.63;5137239;27;20555;-84
2024/03/13 00:18:01;;;;;;;2.53;2.10;;;;;;;7.99;86.40;95805.69;5137053;27;20699;-85
2024/03/13 00:20:30;;;;;;;2.97;2.73;;;;;;;7.90;86.26;95784.38;5137077;27;20263;-84
2024/03/13 00:22:57;;;;;;;2.20;2.03;;;;;;;7.71;86.38;95759.75;5135069;27;20209;-85
2024/03/13 00:25:24;;;;;;;2.47;2.27;;;;;;;8.00;86.19;95784.19;5137053;27;20232;-84
2024/03/13 00:27:52;;;;;;;2.60;2.23;;;;;;;7.93;86.65;95797.00;5135786;27;20248;-84
2024/03/13 00:30:20;;;;;;;2.60;2.40;;;;;;;7.97;86.56;95810.47;5136817;27;20195;-84
2024/03/13 00:32:47;;;;;;;2.33;2.13;;;;;;;7.93;86.18;95797.00;5136678;27;20203;-84
2024/03/13 00:35:14;;;;;;;2.60;2.40;;;;;;;8.06;86.01;95791.00;5117171;27;20251;-84
2024/03/13 00:37:41;;;;;;;3.03;2.07;;;;;;;8.03;86.02;95788.91;5136952;27;20258;-84
2024/03/13 00:40:10;;;;;;;2.30;2.00;;;;;;;8.00;86.33;95781.53;5136455;27;20194;-84
2024/03/13 00:42:37;;;;;;;3.20;2.73;;;;;;;8.09;86.08;95776.34;5136456;27;20255;-84
2024/03/13 00:45:06;;;;;;;3.50;2.77;;;;;;;7.92;85.82;95771.59;5134673;27;20201;-84
2024/03/13 00:47:34;;;;;;;2.50;2.30;;;;;;;8.05;85.80;95783.31;5136801;27;20206;-83
2024/03/13 00:50:03;;;;;;;3.00;2.70;;;;;;;8.07;85.61;95781.97;5135701;27;20202;-83
2024/03/13 00:52:30;;;;;;;3.77;3.47;;;;;;;8.09;86.02;95776.34;5136206;27;20206;-84
2024/03/13 00:54:56;;;;;;;3.77;3.47;;;;;;;8.09;86.16;95779.81;5134580;27;20191;-84
2024/03/13 00:57:24;;;;;;;3.90;3.53;;;;;;;8.17;85.58;95777.56;5135960;27;20205;-84
2024/03/13 00:59:51;;;;;;;4.73;4.07;;;;;;;8.07;85.31;95774.00;5134783;27;20230;-84
2024/03/13 01:02:20;;;;;;;4.43;4.03;;;;;;;8.07;85.68;95775.88;5136140;27;20222;-84
2024/03/13 01:04:48;;;;;;;4.60;4.20;;;;;;;7.98;85.84;95769.69;5136168;27;20195;-84
2024/03/13 01:07:15;;;;;;;5.53;4.10;;;;;;;8.00;85.88;95768.28;5135022;27;20222;-83
2024/03/13 01:09:42;;;;;;;3.77;3.17;;;;;;;8.06;85.87;95769.00;5129970;27;20647;-83
2024/03/13 01:12:09;;;;;;;3.27;2.97;;;;;;;8.01;85.25;95764.56;5115332;28;20203;-83
2024/03/13 01:14:38;;;;;;;3.03;2.83;;;;;;;8.02;85.39;95766.16;5096849;28;20282;-84
2024/03/13 01:17:05;;;;;;;3.63;3.33;;;;;;;7.83;86.03;95733.59;5115908;28;20195;-84
2024/03/13 01:19:34;;;;;;;3.40;3.10;;;;;;;7.81;85.76;95735.75;5114539;28;20191;-83
2024/03/13 01:22:05;;;;;;;3.57;3.27;;;;;;;8.02;85.74;95773.31;5114353;28;20211;-84
2024/03/13 01:24:32;;;;;;;3.03;2.83;;;;;;;7.54;85.88;95704.63;5114062;28;20610;-83
2024/03/13 01:27:00;;;;;;;3.73;3.00;;;;;;;7.85;85.90;95748.13;5114921;28;20688;-84
2024/03/13 01:29:27;;;;;;;3.87;2.67;;;;;;;7.75;85.70;95715.72;5114903;28;20195;-84
2024/03/13 01:31:57;;;;;;;4.03;3.63;;;;;;;8.02;85.76;95754.78;5114767;28;20219;-84
2024/03/13 01:34:24;;;;;;;3.47;3.17;;;;;;;8.13;85.90;95758.84;5115275;27;20223;-84
2024/03/13 01:39:37;;;;;;;3.90;3.57;;;;;;;8.13;85.54;95763.31;5114847;28;20276;-83
2024/03/13 01:56:22;;;;;;;3.63;3.33;;;;;;;7.99;85.78;95764.06;5134846;27;20569;-83
2024/03/13 01:59:02;;;;;;;3.70;3.40;;;;;;;7.83;86.40;95763.53;5134785;27;20683;-83
2024/03/13 02:04:22;;;;;;;2.90;2.70;;;;;;;7.94;87.15;95773.97;5072981;27;20555;-83
2024/03/13 02:06:50;;;;;;;2.63;2.43;;;;;;;7.82;86.87;95753.19;5132100;27;20199;-83
2024/03/13 02:09:22;;;;;;;2.00;1.90;;;;;;;7.63;86.77;95716.16;5134305;27;20199;-83
2024/03/13 02:11:50;;;;;;;3.27;2.83;;;;;;;7.75;86.33;95724.44;5134983;27;20203;-83
2024/03/13 02:14:17;;;;;;;2.90;2.70;;;;;;;7.85;85.91;95749.97;5116746;27;20223;-83
2024/03/13 02:16:44;;;;;;;2.50;2.30;;;;;;;7.90;86.25;95760.53;5133350;27;20255;-84
2024/03/13 02:19:13;;;;;;;3.10;2.90;;;;;;;7.71;86.20;95720.03;5133802;27;20197;-83
2024/03/13 02:21:40;;;;;;;2.67;2.47;;;;;;;7.95;86.17;95744.53;5132856;27;20309;-82
2024/03/13 02:24:07;;;;;;;2.70;2.50;;;;;;;8.07;86.26;95752.03;5132957;27;20197;-83
2024/03/13 02:26:35;;;;;;;2.17;2.07;;;;;;;8.09;85.61;95749.84;5116039;27;20198;-83
2024/03/13 02:29:02;;;;;;;3.20;2.90;;;;;;;8.12;85.54;95756.44;5116485;27;20194;-83
2024/03/13 02:31:29;;;;;;;4.23;3.90;;;;;;;8.24;84.55;95754.91;5116945;27;20191;-82
2024/03/13 02:33:56;;;;;;;4.77;4.27;;;;;;;7.92;84.80;95731.84;5115086;27;20657;-82
2024/03/13 02:36:23;;;;;;;4.47;4.07;;;;;;;8.16;84.76;95754.78;5115363;27;20195;-83
2024/03/13 02:38:50;;;;;;;4.53;4.10;;;;;;;8.17;84.89;95756.34;5116635;27;20199;-83
2024/03/13 02:41:17;;;;;;;5.80;4.73;;;;;;;7.98;85.32;95732.56;5114835;27;20779;-84
2024/03/13 02:43:44;;;;;;;5.00;4.60;;;;;;;7.95;85.01;95749.06;5115439;27;20206;-82
2024/03/13 02:46:12;;;;;;;4.70;4.30;;;;;;;7.91;85.75;95751.50;5100789;28;20298;-82
2024/03/13 02:48:39;;;;;;;3.43;2.73;;;;;;;7.92;85.54;95758.34;5095714;28;20211;-83
2024/03/13 02:51:08;;;;;;;1.43;1.33;;;;;;;8.03;85.37;95754.47;5095084;28;20200;-83
2024/03/13 02:53:38;;;;;;;1.53;1.43;;;;;;;8.00;85.02;95757.69;5095893;28;20191;-82
2024/03/13 02:56:05;;;;;;;4.50;3.00;;;;;;;7.85;84.98;95758.72;5097538;27;20677;-83
2024/03/13 02:58:32;;;;;;;8.67;6.63;;;;;;;7.84;85.29;95772.25;5116094;27;20259;-82
2024/03/13 03:01:01;;;;;;;12.50;7.73;;;;;;;7.95;85.63;95763.09;5116127;27;20202;-83
2024/03/13 03:03:28;;;;;;;7.43;5.67;;;;;;;7.92;85.53;95757.56;5115739;27;20616;-83
2024/03/13 03:05:55;;;;;;;6.60;4.60;;;;;;;7.93;85.21;95767.88;5115260;27;20680;-83
2024/03/13 03:08:22;;;;;;;4.27;3.77;;;;;;;7.82;85.61;95761.97;5114293;27;20191;-83
2024/03/13 03:10:50;;;;;;;3.40;3.10;;;;;;;7.88;85.83;95767.16;5115841;27;20202;-83
2024/03/13 03:13:17;;;;;;;2.87;2.60;;;;;;;7.96;85.41;95764.66;5115286;27;20195;-83
2024/03/13 03:15:44;;;;;;;3.40;3.07;;;;;;;8.02;85.42;95765.38;5115316;27;20627;-83
2024/03/13 03:18:11;;;;;;;3.07;2.47;;;;;;;7.95;85.79;95770.25;5115511;27;20206;-83
2024/03/13 03:20:38;;;;;;;2.80;2.50;;;;;;;7.92;85.25;95768.16;5114992;27;20226;-83
2024/03/13 03:23:06;;;;;;;2.77;2.57;;;;;;;7.80;85.90;95765.97;5115069;27;20220;-84
2024/03/13 03:25:33;;;;;;;3.30;3.00;;;;;;;7.95;85.86;95771.03;5114180;27;20191;-83
2024/03/13 03:27:59;;;;;;;3.60;2.90;;;;;;;7.74;85.89;95762.59;5114289;27;20207;-83
2024/03/13 03:30:30;;;;;;;2.50;2.30;;;;;;;7.76;86.17;95759.66;5114776;27;20213;-82
2024/03/13 03:32:58;;;;;;;2.80;2.60;;;;;;;7.73;85.96;95762.88;5114853;27;20202;-83
2024/03/13 03:35:25;;;;;;;2.80;2.60;;;;;;;7.33;85.87;95723.47;5114854;27;20200;-83
2024/03/13 03:37:52;;;;;;;6.27;5.77;;;;;;;7.54;86.43;95758.38;5115282;27;20201;-83
2024/03/13 03:40:19;;;;;;;7.70;5.37;;;;;;;7.08;87.03;95729.09;5115306;27;20641;-83
2024/03/13 03:42:46;;;;;;;4.00;3.70;;;;;;;7.40;87.33;95765.47;5114804;27;20219;-83
2024/03/13 03:45:12;;;;;;;3.63;2.80;;;;;;;7.51;86.61;95737.78;5115036;27;20220;-84
2024/03/13 03:47:40;;;;;;;3.70;2.87;;;;;;;7.75;85.65;95766.03;5114220;27;20209;-83
2024/03/13 03:50:07;;;;;;;2.83;2.63;;;;;;;7.84;85.45;95761.66;5098224;27;20198;-84
2024/03/13 03:52:34;;;;;;;3.43;2.87;;;;;;;7.81;85.77;95764.88;5115379;28;20285;-84
2024/03/13 03:55:02;;;;;;;3.43;2.50;;;;;;;7.78;85.95;95768.09;5114849;27;20202;-84
2024/03/13 03:57:29;;;;;;;20.53;13.33;;;;;;;7.89;85.90;95761.56;5114813;28;20205;-84
2024/03/13 03:59:56;;;;;;;18.83;15.90;;;;;;;7.70;85.91;95758.94;5097971;28;20723;-84
2024/03/13 04:02:23;;;;;;;16.07;14.37;;;;;;;7.78;86.08;95762.78;5114691;28;20218;-84
2024/03/13 04:04:50;;;;;;;32.83;26.07;;;;;;;7.83;86.23;95757.44;5114060;28;20202;-84
2024/03/13 04:07:17;;;;;;;67.37;49.93;;;;;;;7.83;86.34;95758.22;5113503;28;20198;-84
2024/03/13 04:09:44;;;;;;;12.33;9.57;;;;;;;7.88;85.96;95760.00;5114409;28;20194;-84
2024/03/13 04:12:11;;;;;;;6.87;6.13;;;;;;;7.83;85.62;95762.75;5115436;28;20186;-84
2024/03/13 04:14:38;;;;;;;6.90;4.70;;;;;;;7.95;85.77;95764.94;5114144;28;20230;-84
2024/03/13 04:17:06;;;;;;;2.53;1.80;;;;;;;7.89;86.14;95766.88;5114256;28;20199;-84
2024/03/13 04:19:33;;;;;;;1.70;1.60;;;;;;;7.78;85.94;95746.91;5106055;28;20221;-83
2024/03/13 04:22:00;;;;;;;2.90;2.00;;;;;;;7.76;85.87;95771.03;5093795;28;20303;-83
2024/03/13 04:24:27;;;;;;;2.30;2.10;;;;;;;7.38;86.38;95712.00;5093921;28;20562;-83
2024/03/13 04:26:54;;;;;;;2.97;2.77;;;;;;;7.72;86.74;95770.03;5094013;28;20684;-83
2024/03/13 04:29:21;;;;;;;3.20;2.50;;;;;;;7.81;86.44;95770.97;5094143;28;20195;-84
2024/03/13 04:31:48;;;;;;;2.87;2.10;;;;;;;7.74;86.24;95761.81;5092819;28;20286;-83
2024/03/13 04:34:15;;;;;;;4.57;2.60;;;;;;;8.01;85.80;95774.38;5094093;28;20195;-83
2024/03/13 04:36:43;;;;;;;2.40;2.20;;;;;;;7.84;85.45;95777.56;5093482;28;20203;-83
2024/03/13 04:39:10;;;;;;;4.63;1.73;;;;;;;7.76;85.93;95784.28;5102111;28;20287;-84
2024/03/13 04:41:39;;;;;;;2.27;2.07;;;;;;;7.73;85.72;95774.25;5093518;28;20291;-84
2024/03/13 04:44:06;;;;;;;2.33;2.13;;;;;;;7.74;85.67;95770.53;5094161;28;20206;-83
2024/03/13 04:46:34;;;;;;;2.53;2.33;;;;;;;7.69;85.17;95762.66;5093654;28;20692;-84
2024/03/13 04:49:00;;;;;;;2.70;2.50;;;;;;;7.80;85.50;95768.63;5103458;28;20191;-83
2024/03/13 04:51:28;;;;;;;2.87;2.67;;;;;;;7.80;84.88;95758.00;5113010;28;20195;-83
2024/03/13 04:53:55;;;;;;;4.27;3.00;;;;;;;7.87;84.87;95776.97;5075125;28;20204;-83
2024/03/13 04:56:22;;;;;;;3.80;3.30;;;;;;;7.94;84.32;95772.13;5073245;28;20204;-84
2024/03/13 04:58:49;;;;;;;3.63;3.33;;;;;;;8.04;84.12;95771.16;5108025;27;20214;-84
2024/03/13 05:01:19;;;;;;;3.23;2.93;;;;;;;7.98;84.26;95773.09;5114350;27;20691;-83
2024/03/13 05:03:46;;;;;;;6.60;2.77;;;;;;;7.78;84.56;95755.66;5094514;27;20226;-89
2024/03/13 05:06:13;;;;;;;4.27;3.87;;;;;;;7.44;85.24;95732.06;5105047;27;20226;-88
2024/03/13 05:08:43;;;;;;;5.93;4.07;;;;;;;7.69;85.65;95767.19;5098308;28;20199;-91
2024/03/13 05:11:10;;;;;;;5.87;4.20;;;;;;;7.60;84.82;95736.06;5098924;28;20267;-91
2024/03/13 05:13:38;;;;;;;3.60;3.30;;;;;;;7.80;85.33;95787.16;5081556;28;20195;-90
2024/03/13 05:16:06;;;;;;;6.57;3.40;;;;;;;7.29;85.17;95692.56;5100217;27;20645;-91
2024/03/13 05:18:34;;;;;;;5.83;4.30;;;;;;;7.44;85.44;95720.69;5119157;27;20206;-90
2024/03/13 05:21:01;;;;;;;3.87;3.57;;;;;;;7.88;85.16;95778.56;5118939;27;20198;-91
2024/03/13 05:23:28;;;;;;;4.00;3.67;;;;;;;7.83;84.91;95778.63;5118643;27;20218;-90
2024/03/13 05:25:55;;;;;;;6.60;3.37;;;;;;;7.91;84.88;95780.63;5117096;27;20209;-91
2024/03/13 05:28:22;;;;;;;4.30;3.87;;;;;;;7.94;85.20;95788.00;5118562;27;20195;-91
2024/03/13 05:30:49;;;;;;;12.23;7.90;;;;;;;7.97;84.05;95782.09;5106455;27;20203;-92
2024/03/13 05:33:16;;;;;;;19.43;13.07;;;;;;;7.92;84.20;95771.59;5117908;27;20202;-91
2024/03/13 05:35:43;;;;;;;7.83;7.00;;;;;;;7.85;84.68;95769.31;5119280;27;20206;-90
2024/03/13 05:38:10;;;;;;;5.60;5.10;;;;;;;7.94;84.83;95787.22;5101919;27;20203;-91
2024/03/13 05:40:37;;;;;;;5.00;4.60;;;;;;;7.84;84.50;95754.50;5113038;28;20199;-91
2024/03/13 05:43:05;;;;;;;4.70;4.30;;;;;;;7.95;84.55;95786.16;5097586;28;20560;-91
2024/03/13 05:45:32;;;;;;;4.07;3.70;;;;;;;7.63;84.11;95733.88;5097810;28;20229;-91
2024/03/13 05:47:59;;;;;;;3.87;3.53;;;;;;;8.09;83.50;95787.78;5097257;28;20203;-84
2024/03/13 05:50:26;;;;;;;3.10;2.90;;;;;;;8.14;82.57;95791.41;5080476;28;20280;-85
2024/03/13 05:52:53;;;;;;;3.60;3.30;;;;;;;8.06;82.64;95787.56;5102482;27;20200;-85
2024/03/13 05:55:20;;;;;;;3.47;3.17;;;;;;;7.75;81.99;95736.91;5116575;27;20200;-85
2024/03/13 05:57:47;;;;;;;3.07;2.87;;;;;;;7.76;81.49;95770.25;5115765;27;20201;-86
2024/03/13 06:00:17;;;;;;;3.03;2.73;;;;;;;8.09;81.45;95794.91;5117096;27;20278;-86
2024/03/13 06:02:44;;;;;;;4.17;3.77;;;;;;;8.13;81.27;95811.03;5107323;28;20252;-84
2024/03/13 06:05:14;;;;;;;3.63;3.33;;;;;;;8.03;81.46;95810.13;5096101;28;20669;-85
2024/03/13 06:07:43;;;;;;;3.80;3.50;;;;;;;7.75;81.01;95758.09;5096915;28;20242;-85
2024/03/13 06:10:11;;;;;;;2.77;2.57;;;;;;;7.74;80.22;95749.34;5096642;28;20195;-85
2024/03/13 06:12:38;;;;;;;3.10;2.60;;;;;;;7.73;79.68;95747.78;5096015;28;20199;-85
2024/03/13 06:15:07;;;;;;;2.73;2.53;;;;;;;8.13;79.05;95811.84;5096101;28;20191;-85
2024/03/13 06:17:34;;;;;;;3.70;3.40;;;;;;;8.07;78.89;95784.63;5106272;27;20742;-85
2024/03/13 06:20:03;;;;;;;3.10;2.90;;;;;;;8.20;78.46;95793.69;5114902;27;20240;-85
2024/03/13 06:22:30;;;;;;;3.00;2.80;;;;;;;8.18;77.67;95797.72;5115642;27;20222;-84
2024/03/13 06:25:00;;;;;;;3.40;2.80;;;;;;;8.38;76.79;95813.31;5115104;27;20194;-85
2024/03/13 06:27:28;;;;;;;3.30;3.00;;;;;;;8.18;76.79;95782.59;5116318;27;20191;-85
2024/03/13 06:29:58;;;;;;;3.63;3.33;;;;;;;7.93;77.73;95744.03;5116256;27;20205;-85
2024/03/13 06:32:28;;;;;;;3.80;3.50;;;;;;;8.53;76.57;95821.00;5116005;27;20259;-85
2024/03/13 06:34:56;;;;;;;3.50;3.30;;;;;;;8.49;77.34;95819.25;5115953;27;20545;-84
2024/03/13 06:37:23;;;;;;;3.10;2.90;;;;;;;8.52;77.38;95808.84;5115577;27;20658;-84
2024/03/13 06:39:50;;;;;;;3.13;2.83;;;;;;;8.60;76.21;95820.66;5114479;27;20733;-85
2024/03/13 06:42:17;;;;;;;3.37;3.17;;;;;;;8.55;74.80;95815.41;5115231;27;20222;-85
2024/03/13 06:44:44;;;;;;;2.93;2.73;;;;;;;8.31;76.65;95789.78;5102440;27;20198;-84
2024/03/13 06:47:11;;;;;;;3.60;3.17;;;;;;;8.75;76.07;95833.66;5114996;27;20233;-85
2024/03/13 06:49:38;;;;;;;3.37;2.73;;;;;;;8.72;76.22;95834.22;5089906;28;20582;-84
2024/03/13 06:52:05;;;;;;;2.80;2.60;;;;;;;8.67;76.09;95809.63;5098574;28;20215;-85
2024/03/13 06:54:32;;;;;;;2.83;2.63;;;;;;;8.93;76.17;95853.22;5105569;28;20199;-85
2024/03/13 06:56:58;;;;;;;31.40;15.33;;;;;;;8.90;75.30;95834.44;5107441;27;20607;-84
2024/03/13 06:59:25;;;;;;;14.57;9.07;;;;;;;8.78;74.28;95846.31;5114413;27;20218;-84
2024/03/13 07:01:55;;;;;;;5.47;4.97;;;;;;;8.59;73.58;95781.91;5114887;27;20752;-85
2024/03/13 07:04:23;;;;;;;6.33;5.83;;;;;;;8.75;73.99;95822.22;5115365;27;20216;-85
2024/03/13 07:06:56;;;;;;;4.20;3.80;;;;;;;8.48;73.86;95783.16;5114864;27;20198;-85
2024/03/13 07:09:23;;;;;;;4.90;4.40;;;;;;;8.95;72.01;95845.75;5085818;27;20219;-84
2024/03/13 07:11:51;;;;;;;3.90;3.60;;;;;;;8.87;73.29;95827.06;5105468;28;20200;-86
2024/03/13 07:14:18;;;;;;;3.60;3.30;;;;;;;8.97;72.04;95866.69;5108324;28;20199;-85
2024/03/13 07:16:45;;;;;;;3.70;3.40;;;;;;;8.77;72.45;95838.66;5108481;28;20199;-84
2024/03/13 07:19:12;;;;;;;3.63;3.33;;;;;;;8.97;73.46;95848.88;5107121;27;20250;-84
2024/03/13 07:21:39;;;;;;;3.80;3.13;;;;;;;8.77;72.87;95854.56;5091196;28;20192;-87
2024/03/13 07:24:06;;;;;;;4.10;3.70;;;;;;;9.30;72.33;95860.22;5099730;27;20318;-86
2024/03/13 07:26:33;;;;;;;4.53;4.13;;;;;;;9.43;70.34;95829.44;5107542;28;20194;-84
2024/03/13 07:29:00;;;;;;;3.83;3.53;;;;;;;9.35;70.49;95814.19;5105800;27;20203;-84
2024/03/13 07:31:30;;;;;;;3.93;3.40;;;;;;;9.40;69.52;95789.38;5113200;27;20724;-84
2024/03/13 07:33:57;;;;;;;4.23;3.90;;;;;;;10.08;69.01;95824.88;5114426;27;20226;-84
2024/03/13 07:36:24;;;;;;;4.10;3.80;;;;;;;9.91;69.13;95830.81;5112204;27;20194;-87
2024/03/13 07:38:52;;;;;;;4.03;3.73;;;;;;;9.94;68.89;95823.03;5105295;27;20194;-85
2024/03/13 07:41:20;;;;;;;4.13;3.73;;;;;;;9.89;67.81;95809.06;5111804;28;20202;-82
2024/03/13 07:43:48;;;;;;;4.50;4.03;;;;;;;10.10;67.91;95855.38;5104639;28;20224;-83
2024/03/13 07:46:15;;;;;;;5.13;3.77;;;;;;;10.32;65.33;95857.28;5105237;27;20211;-84
2024/03/13 07:48:42;;;;;;;5.10;4.00;;;;;;;10.28;64.24;95851.00;5104422;28;20248;-84
2024/03/13 07:51:09;;;;;;;5.73;5.23;;;;;;;10.57;63.24;95869.22;5113777;27;20188;-84
2024/03/13 07:53:37;;;;;;;7.90;6.40;;;;;;;10.35;64.20;95859.34;5109674;28;20249;-84
2024/03/13 07:56:05;;;;;;;4.60;4.20;;;;;;;10.36;64.16;95842.31;5107141;28;20194;-86
2024/03/13 07:58:32;;;;;;;4.93;4.57;;;;;;;10.48;64.64;95861.16;5113244;27;20662;-84
2024/03/13 08:01:01;;;;;;;5.57;5.07;;;;;;;10.66;63.64;95845.31;5113230;28;20206;-84
2024/03/13 08:03:28;;;;;;;3.70;3.40;;;;;;;10.65;64.00;95876.47;5112951;28;20748;-84
2024/03/13 08:05:55;;;;;;;4.37;4.07;;;;;;;10.92;62.81;95856.09;5112767;28;20814;-84
2024/03/13 08:08:22;;;;;;;4.53;3.70;;;;;;;11.18;61.86;95867.66;5113405;28;20195;-84
2024/03/13 08:10:49;;;;;;;3.97;3.57;;;;;;;10.97;61.92;95840.78;5113561;28;20658;-84
2024/03/13 08:13:16;;;;;;;4.00;3.70;;;;;;;11.01;61.81;95849.72;5113603;28;20258;-84
2024/03/13 08:15:43;;;;;;;5.97;5.47;;;;;;;10.95;61.94;95874.13;5113529;28;20201;-84
2024/03/13 08:18:14;;;;;;;5.53;5.13;;;;;;;10.93;62.70;95855.03;5113747;28;20661;-84
2024/03/13 08:20:42;;;;;;;3.70;3.40;;;;;;;10.79;62.14;95865.72;5114627;28;20191;-84
2024/03/13 08:23:10;;;;;;;4.63;4.23;;;;;;;10.95;61.57;95869.56;5113919;28;20221;-85
2024/03/13 08:25:37;;;;;;;18.67;5.87;;;;;;;10.75;62.19;95859.44;5113539;28;20202;-86
2024/03/13 08:28:04;;;;;;;5.27;4.80;;;;;;;10.41;63.70;95831.53;5113929;28;20202;-84
2024/03/13 08:30:31;;;;;;;3.70;3.40;;;;;;;10.26;63.63;95819.41;5113084;27;20270;-83
2024/03/13 08:32:59;;;;;;;3.97;3.67;;;;;;;10.39;62.96;95851.56;5116645;27;20201;-84
2024/03/13 08:35:28;;;;;;;5.33;4.83;;;;;;;10.53;63.87;95869.03;5117649;27;20214;-84
2024/03/13 08:37:58;;;;;;;5.40;4.87;;;;;;;10.53;63.70;95874.34;5118243;27;20653;-84
2024/03/13 08:40:28;;;;;;;5.00;4.60;;;;;;;10.63;63.66;95875.19;5085556;27;20191;-84
2024/03/13 08:42:55;;;;;;;4.07;3.77;;;;;;;10.55;63.43;95874.03;5118038;27;20193;-84
2024/03/13 08:45:23;;;;;;;5.63;5.03;;;;;;;10.66;62.93;95875.38;5117619;27;20286;-84
2024/03/13 08:47:50;;;;;;;5.00;4.60;;;;;;;10.60;63.02;95862.50;5117697;27;20658;-83
2024/03/13 08:50:18;;;;;;;4.63;4.23;;;;;;;10.91;63.13;95865.19;5109185;28;20195;-84
2024/03/13 08:52:45;;;;;;;3.33;3.13;;;;;;;10.83;62.70;95850.72;5112383;27;20683;-84
2024/03/13 08:55:12;;;;;;;4.50;4.10;;;;;;;10.64;62.60;95820.88;5117217;27;20251;-84
2024/03/13 08:57:38;;;;;;;5.57;4.20;;;;;;;11.11;62.41;95851.34;5105176;27;20211;-84
2024/03/13 09:00:10;;;;;;;4.13;3.80;;;;;;;11.39;61.37;95875.91;5117000;27;20305;-84
2024/03/13 09:02:38;;;;;;;3.67;3.37;;;;;;;11.55;61.37;95880.81;5114320;27;20192;-83
2024/03/13 09:05:05;;;;;;;3.90;3.57;;;;;;;11.62;59.38;95873.16;5106968;27;20631;-86
2024/03/13 09:07:32;;;;;;;4.30;3.90;;;;;;;11.49;60.05;95874.81;5117052;27;20229;-84
2024/03/13 09:09:59;;;;;;;4.77;4.37;;;;;;;11.36;60.24;95876.50;5116820;27;20199;-84
2024/03/13 09:12:27;;;;;;;6.23;4.73;;;;;;;11.40;59.95;95885.44;5116828;27;20607;-84
2024/03/13 09:14:54;;;;;;;4.30;4.00;;;;;;;11.27;60.13;95891.69;5116899;27;20198;-84
2024/03/13 09:17:22;;;;;;;4.07;3.77;;;;;;;11.21;59.60;95876.91;5116972;27;20202;-84
2024/03/13 09:19:51;;;;;;;4.20;3.80;;;;;;;11.37;59.96;95891.41;5116780;27;20203;-84
2024/03/13 09:22:18;;;;;;;5.17;4.60;;;;;;;11.44;59.91;95869.63;5116883;27;20191;-82
2024/03/13 09:24:45;;;;;;;4.67;4.27;;;;;;;11.72;59.63;95886.16;5116836;27;20226;-84
2024/03/13 09:27:12;;;;;;;4.17;3.87;;;;;;;11.87;58.61;95880.44;5116587;27;20232;-84
2024/03/13 09:29:39;;;;;;;4.33;3.93;;;;;;;11.90;58.75;95887.03;5116303;27;20210;-84
2024/03/13 09:32:06;;;;;;;5.07;4.07;;;;;;;11.36;57.46;95883.72;5116945;27;20213;-84
2024/03/13 09:34:33;;;;;;;16.63;3.90;;;;;;;11.25;58.69;95867.22;5116210;27;20732;-82
2024/03/13 09:37:03;;;;;;;4.07;3.77;;;;;;;11.52;59.22;95890.19;5116186;27;20668;-83
2024/03/13 09:39:30;;;;;;;3.97;3.67;;;;;;;11.55;58.45;95881.59;5115904;27;20649;-83
2024/03/13 09:41:57;;;;;;;4.10;3.80;;;;;;;11.68;58.94;95898.56;5115537;27;20269;-83
2024/03/13 09:44:24;;;;;;;3.40;3.10;;;;;;;11.58;57.55;95896.97;5116093;27;20218;-83
2024/03/13 09:46:51;;;;;;;3.60;3.30;;;;;;;11.74;58.04;95890.09;5116062;27;20592;-83
2024/03/13 09:49:18;;;;;;;4.13;3.83;;;;;;;11.95;58.47;95897.53;5116079;27;20203;-84
2024/03/13 09:51:45;;;;;;;3.20;3.00;;;;;;;11.99;56.86;95888.59;5103830;27;20195;-84
2024/03/13 09:54:12;;;;;;;4.63;4.20;;;;;;;12.05;56.21;95875.91;5115800;27;20210;-84
2024/03/13 09:56:40;;;;;;;4.07;3.27;;;;;;;12.01;56.18;95866.19;5114764;27;20657;-84
2024/03/13 09:59:08;;;;;;;3.47;3.17;;;;;;;11.82;56.14;95907.22;5115656;27;20230;-84
2024/03/13 10:01:35;;;;;;;3.33;3.10;;;;;;;11.90;57.24;95887.03;5102717;27;20195;-83
2024/03/13 10:04:10;;;;;;;3.53;3.33;;;;;;;12.03;56.33;95891.44;5115391;27;20233;-84
2024/03/13 10:06:37;;;;;;;3.17;2.97;;;;;;;12.19;54.47;95876.53;5117310;27;20239;-83
2024/03/13 10:09:07;;;;;;;3.47;3.27;;;;;;;12.30;56.57;95869.00;5099984;27;20666;-83
2024/03/13 10:11:34;;;;;;;3.53;3.33;;;;;;;12.11;54.82;95834.63;5116025;27;20723;-84
2024/03/13 10:14:01;;;;;;;3.10;2.90;;;;;;;12.63;56.31;95876.53;5115650;27;20272;-82
2024/03/13 10:16:28;;;;;;;3.87;3.30;;;;;;;13.11;55.04;95875.50;5115700;27;20194;-83
2024/03/13 10:18:54;;;;;;;2.90;2.70;;;;;;;13.50;53.33;95866.41;5114593;27;20215;-82
2024/03/13 10:21:23;;;;;;;3.70;3.40;;;;;;;13.95;50.60;95817.69;5115268;27;20195;-83
2024/03/13 10:23:50;;;;;;;4.67;3.97;;;;;;;13.81;48.19;95846.56;5115268;27;20293;-84
2024/03/13 10:26:19;;;;;;;5.40;4.87;;;;;;;14.21;54.01;95876.38;5115460;27;20322;-83
2024/03/13 10:28:46;;;;;;;3.77;3.47;;;;;;;14.09;58.03;95862.91;5115853;27;20230;-84
2024/03/13 10:31:14;;;;;;;4.60;3.83;;;;;;;14.52;55.96;95870.63;5115471;27;20210;-83
2024/03/13 10:33:41;;;;;;;4.33;3.30;;;;;;;14.67;54.83;95819.13;5115096;27;20226;-84
2024/03/13 10:36:07;;;;;;;2.93;2.73;;;;;;;14.47;53.47;95854.72;5115207;27;20198;-83
2024/03/13 10:38:35;;;;;;;3.23;2.93;;;;;;;14.62;54.35;95851.47;5115487;27;20199;-84
2024/03/13 10:41:02;;;;;;;3.57;3.23;;;;;;;14.90;53.53;95875.00;5114715;27;20212;-83
2024/03/13 10:43:31;;;;;;;2.30;2.10;;;;;;;14.74;53.02;95856.09;5115124;27;20226;-83
2024/03/13 10:45:57;;;;;;;2.63;2.43;;;;;;;15.06;52.53;95862.53;5115498;27;20194;-84
2024/03/13 10:48:24;;;;;;;3.07;2.77;;;;;;;14.89;50.90;95843.97;5114555;27;20248;-83
2024/03/13 10:50:51;;;;;;;3.33;2.87;;;;;;;15.53;49.02;95834.53;5115000;27;20202;-83
2024/03/13 10:53:19;;;;;;;3.53;3.23;;;;;;;15.35;50.01;95832.06;5115174;27;20191;-83
2024/03/13 10:55:46;;;;;;;4.87;4.57;;;;;;;14.32;51.43;95829.34;5114113;27;20191;-83
2024/03/13 10:58:17;;;;;;;3.17;2.87;;;;;;;13.56;53.73;95808.97;5114602;27;20203;-83
2024/03/13 11:00:44;;;;;;;3.00;2.80;;;;;;;13.38;55.43;95827.00;5112910;27;20268;-83
2024/03/13 11:03:12;;;;;;;2.97;2.77;;;;;;;13.69;55.11;95853.41;5115009;27;20201;-84
2024/03/13 11:05:39;;;;;;;3.30;3.07;;;;;;;12.94;56.86;95853.06;5114615;27;20690;-83
2024/03/13 11:08:06;;;;;;;3.30;3.00;;;;;;;12.79;58.06;95848.25;5114625;27;20205;-83
2024/03/13 11:10:34;;;;;;;2.60;2.40;;;;;;;12.30;60.19;95846.88;5114569;27;20199;-83
2024/03/13 11:13:02;;;;;;;3.43;3.13;;;;;;;12.27;60.27;95840.28;5106956;28;20263;-84
2024/03/13 11:15:29;;;;;;;2.97;2.70;;;;;;;12.19;61.16;95841.84;5108052;27;20198;-84
2024/03/13 11:17:56;;;;;;;3.10;2.80;;;;;;;12.00;61.59;95844.06;5114502;27;20244;-83
2024/03/13 11:20:23;;;;;;;2.97;2.77;;;;;;;11.87;62.47;95847.66;5114619;27;20653;-83
2024/03/13 11:22:52;;;;;;;2.73;2.53;;;;;;;12.10;62.16;95838.41;5105461;28;20203;-83
2024/03/13 11:25:18;;;;;;;2.33;2.23;;;;;;;12.06;61.88;95832.13;5109461;27;20759;-83
2024/03/13 11:27:45;;;;;;;5.83;3.20;;;;;;;11.97;62.23;95818.81;5103087;28;20242;-83
2024/03/13 11:30:14;;;;;;;3.10;2.80;;;;;;;11.84;63.18;95809.06;5103037;27;20249;-84
2024/03/13 11:32:40;;;;;;;3.30;2.90;;;;;;;11.81;64.70;95804.34;5114102;27;20617;-84
2024/03/13 11:35:07;;;;;;;5.03;3.50;;;;;;;11.69;65.31;95801.47;5113983;27;20198;-84
2024/03/13 11:37:35;;;;;;;3.23;2.63;;;;;;;11.44;64.90;95787.81;5112400;27;20203;-83
2024/03/13 11:40:02;;;;;;;2.83;2.60;;;;;;;11.69;63.77;95772.16;5100819;27;20192;-83
2024/03/13 11:42:32;;;;;;;2.83;2.57;;;;;;;12.45;63.55;95822.38;5114034;27;20206;-83
2024/03/13 11:45:15;;;;;;;3.30;2.40;;;;;;;12.29;63.51;95822.09;5113788;27;20611;-83
2024/03/13 11:47:42;;;;;;;3.30;2.70;;;;;;;12.46;64.25;95819.38;5114426;27;20199;-83
2024/03/13 11:50:10;;;;;;;3.87;3.00;;;;;;;12.82;61.88;95820.13;5111037;27;20253;-81
2024/03/13 11:52:38;;;;;;;3.07;2.77;;;;;;;12.95;62.11;95801.22;5114109;28;20213;-84
2024/03/13 11:55:09;;;;;;;2.87;2.60;;;;;;;12.69;63.67;95790.59;5113972;27;20195;-82
2024/03/13 11:57:35;;;;;;;2.80;2.60;;;;;;;11.93;65.55;95790.41;5114366;27;20226;-84
2024/03/13 12:00:05;;;;;;;3.40;3.10;;;;;;;11.99;66.07;95763.25;5101360;27;20214;-83